Time;durP1;ratioP1;P1;durP2;ratioP2;P2;SDS_P1;SDS_P2;PMS_P1;PMS_P2;Temp;Humidity;BMP_temperature;BMP_pressure;BME280_temperature;BME280_humidity;BME280_pressure;Samples;Min_cycle;Max_cycle;Signal;HPM_P1;HPM_P2
2022/12/18 00:01:05;;;;;;;28.87;15.27;;;-4.20;86.30;;;;;;937235;150;27270;-77
2022/12/18 00:03:28;;;;;;;26.83;14.67;;;-4.30;86.20;;;;;;936792;150;27300;-78
2022/12/18 00:05:55;;;;;;;27.73;15.67;;;-4.40;86.20;;;;;;937649;150;27359;-78
2022/12/18 00:08:21;;;;;;;24.70;14.73;;;-4.40;86.20;;;;;;936890;150;27425;-77
2022/12/18 00:10:48;;;;;;;27.20;15.80;;;-4.50;86.30;;;;;;936964;150;27253;-77
2022/12/18 00:13:14;;;;;;;31.50;15.17;;;-4.50;87.20;;;;;;937416;150;27458;-78
2022/12/18 00:15:41;;;;;;;30.90;14.37;;;-4.60;86.70;;;;;;937139;150;27300;-77
2022/12/18 00:18:07;;;;;;;30.77;14.83;;;-4.70;86.80;;;;;;936345;150;27372;-78
2022/12/18 00:20:37;;;;;;;25.97;13.70;;;-4.70;87.00;;;;;;937080;150;27528;-77
2022/12/18 00:23:04;;;;;;;26.00;14.37;;;-4.70;87.10;;;;;;937631;150;27357;-77
2022/12/18 00:25:30;;;;;;;29.73;15.47;;;-4.80;87.20;;;;;;937417;150;27365;-77
2022/12/18 00:27:57;;;;;;;30.20;14.67;;;-4.80;87.30;;;;;;936747;150;27304;-78
2022/12/18 00:30:23;;;;;;;28.83;15.33;;;-4.80;87.50;;;;;;936643;150;27460;-78
2022/12/18 00:32:50;;;;;;;32.70;15.57;;;-4.80;87.70;;;;;;937409;150;27341;-78
2022/12/18 00:35:17;;;;;;;30.87;16.47;;;-4.80;87.90;;;;;;937457;150;27383;-77
2022/12/18 00:37:43;;;;;;;33.07;16.23;;;-4.80;88.10;;;;;;935675;150;27433;-78
2022/12/18 00:40:10;;;;;;;32.20;16.00;;;-4.80;88.30;;;;;;937293;150;27363;-77
2022/12/18 00:45:21;;;;;;;29.60;15.87;;;-4.80;88.80;;;;;;936396;150;27274;-77
2022/12/18 00:47:48;;;;;;;35.90;18.53;;;-4.80;88.90;;;;;;936965;150;27339;-78
2022/12/18 00:50:15;;;;;;;29.33;16.60;;;-4.70;89.10;;;;;;937867;150;27442;-78
2022/12/18 00:52:42;;;;;;;33.00;17.30;;;-4.70;89.20;;;;;;937028;150;27392;-77
2022/12/18 00:55:08;;;;;;;31.77;16.23;;;-4.70;89.30;;;;;;937321;150;27298;-78
2022/12/18 00:57:34;;;;;;;31.27;16.93;;;-4.70;89.30;;;;;;936848;150;27290;-77
2022/12/18 01:00:01;;;;;;;35.83;19.73;;;-4.60;89.30;;;;;;939124;150;27425;-78
2022/12/18 01:02:28;;;;;;;36.57;17.97;;;-4.60;89.20;;;;;;936983;150;27376;-77
2022/12/18 01:04:54;;;;;;;32.17;16.40;;;-4.60;89.10;;;;;;936506;150;27315;-77
2022/12/18 01:07:21;;;;;;;33.20;17.70;;;-4.60;89.30;;;;;;937750;150;27590;-77
2022/12/18 01:09:47;;;;;;;29.00;17.67;;;-4.60;88.70;;;;;;936512;150;27440;-78
2022/12/18 01:12:14;;;;;;;32.10;16.97;;;-4.60;88.50;;;;;;937208;150;27287;-78
2022/12/18 01:14:41;;;;;;;31.83;16.70;;;-4.60;88.40;;;;;;937385;150;27359;-77
2022/12/18 01:17:07;;;;;;;27.40;15.73;;;-4.70;88.10;;;;;;937567;150;27903;-77
2022/12/18 01:19:34;;;;;;;27.73;15.43;;;-4.70;88.10;;;;;;936886;150;27336;-77
2022/12/18 01:22:00;;;;;;;27.10;15.40;;;-4.70;87.90;;;;;;936812;150;27317;-77
2022/12/18 01:24:27;;;;;;;37.20;17.33;;;-4.80;87.80;;;;;;936959;150;27274;-78
2022/12/18 01:26:53;;;;;;;31.23;17.13;;;-4.80;87.90;;;;;;937016;150;27385;-78
2022/12/18 01:29:20;;;;;;;30.57;16.27;;;-4.80;87.90;;;;;;937049;150;27335;-77
2022/12/18 01:31:47;;;;;;;31.77;17.40;;;-4.90;88.00;;;;;;936227;150;28759;-78
2022/12/18 01:34:13;;;;;;;30.57;16.20;;;-4.90;88.10;;;;;;936629;150;27320;-78
2022/12/18 01:36:40;;;;;;;27.63;15.17;;;-4.90;88.10;;;;;;937378;150;27803;-78
2022/12/18 01:39:06;;;;;;;33.07;16.47;;;-4.90;88.90;;;;;;937786;150;27285;-77
2022/12/18 01:44:52;;;;;;;30.93;15.70;;;-5.00;88.10;;;;;;936756;150;27382;-78
2022/12/18 01:47:21;;;;;;;33.17;16.97;;;-5.00;88.10;;;;;;937243;150;27383;-77
2022/12/18 01:49:48;;;;;;;33.07;17.40;;;-5.10;87.90;;;;;;936486;149;27379;-77
2022/12/18 01:52:14;;;;;;;32.23;18.27;;;-5.10;87.90;;;;;;936452;150;27295;-77
2022/12/18 01:54:41;;;;;;;30.37;16.53;;;-5.20;87.80;;;;;;937603;150;27283;-77
2022/12/18 01:57:07;;;;;;;33.10;17.77;;;-5.20;87.80;;;;;;937544;150;27374;-78
2022/12/18 01:59:34;;;;;;;35.70;16.77;;;-5.20;87.70;;;;;;936357;150;27348;-78
2022/12/18 02:02:00;;;;;;;28.07;15.57;;;-5.30;87.60;;;;;;937253;150;27364;-78
2022/12/18 02:04:27;;;;;;;29.87;17.13;;;-5.30;87.70;;;;;;936393;150;27259;-78
2022/12/18 02:06:59;;;;;;;28.90;16.10;;;-5.40;87.60;;;;;;937852;147;27968;-77
2022/12/18 02:09:29;;;;;;;24.93;14.37;;;-5.40;87.70;;;;;;936494;150;27451;-78
2022/12/18 02:12:14;;;;;;;30.43;15.90;;;-5.50;87.50;;;;;;944153;149;27484;-77
2022/12/18 02:14:55;;;;;;;28.17;15.97;;;-5.50;87.60;;;;;;935814;150;27377;-77
2022/12/18 02:17:22;;;;;;;28.53;15.80;;;-5.50;87.70;;;;;;929195;150;27336;-77
2022/12/18 02:20:09;;;;;;;32.30;17.27;;;-5.60;87.60;;;;;;935272;150;27474;-77
2022/12/18 02:22:54;;;;;;;29.03;16.33;;;-5.60;87.70;;;;;;943447;149;27424;-78
2022/12/18 02:25:21;;;;;;;29.27;16.23;;;-5.70;87.70;;;;;;943003;149;27473;-77
2022/12/18 02:27:47;;;;;;;37.37;18.40;;;-5.70;87.70;;;;;;930162;151;27411;-77
2022/12/18 02:30:14;;;;;;;36.43;18.07;;;-5.80;87.60;;;;;;932868;151;27317;-78
2022/12/18 02:32:40;;;;;;;34.63;17.50;;;-5.80;87.50;;;;;;945406;149;27309;-78
2022/12/18 02:35:07;;;;;;;37.50;18.07;;;-5.80;87.50;;;;;;944710;149;27313;-78
2022/12/18 02:37:33;;;;;;;34.03;17.93;;;-5.90;87.20;;;;;;934774;150;27454;-77
2022/12/18 02:40:00;;;;;;;32.87;18.57;;;-5.90;87.10;;;;;;934989;150;27474;-77
2022/12/18 02:42:27;;;;;;;34.77;17.77;;;-6.00;86.80;;;;;;931134;152;27302;-77
2022/12/18 02:44:56;;;;;;;37.70;19.27;;;-6.00;86.70;;;;;;945276;149;27321;-78
2022/12/18 02:47:23;;;;;;;33.13;17.00;;;-6.10;86.60;;;;;;945061;149;27329;-77
2022/12/18 02:49:58;;;;;;;35.13;19.03;;;-6.10;86.50;;;;;;934678;150;27449;-78
2022/12/18 02:53:02;;;;;;;39.47;19.67;;;-6.20;86.50;;;;;;934166;150;27365;-77
2022/12/18 02:55:34;;;;;;;34.77;18.60;;;-6.30;86.60;;;;;;934776;150;27381;-77
2022/12/18 02:58:04;;;;;;;35.20;19.30;;;-6.30;86.50;;;;;;934203;150;27373;-77
2022/12/18 03:00:40;;;;;;;35.20;18.20;;;-6.40;86.50;;;;;;934176;150;27251;-77
2022/12/18 03:03:12;;;;;;;37.70;20.50;;;-6.50;87.10;;;;;;934971;150;27411;-77
2022/12/18 03:05:41;;;;;;;37.33;19.20;;;-6.50;86.40;;;;;;934207;150;27318;-78
2022/12/18 03:08:13;;;;;;;39.87;19.83;;;-6.50;86.60;;;;;;934175;150;27419;-77
2022/12/18 03:10:40;;;;;;;38.73;19.40;;;-6.60;86.40;;;;;;931347;151;27486;-77
2022/12/18 03:13:06;;;;;;;40.23;19.57;;;-6.70;86.50;;;;;;929922;151;27395;-78
2022/12/18 03:15:36;;;;;;;37.40;19.03;;;-6.60;86.70;;;;;;928616;151;27418;-77
2022/12/18 03:18:02;;;;;;;34.13;18.73;;;-6.70;86.90;;;;;;929826;151;27380;-77
2022/12/18 03:20:29;;;;;;;36.60;18.57;;;-6.70;87.00;;;;;;929650;151;27367;-78
2022/12/18 03:22:55;;;;;;;34.60;19.03;;;-6.70;87.10;;;;;;929376;151;27328;-77
2022/12/18 03:25:22;;;;;;;31.83;18.20;;;-6.70;87.20;;;;;;930944;151;27323;-78
2022/12/18 03:27:49;;;;;;;36.00;19.77;;;-6.70;87.20;;;;;;929295;151;27361;-78
2022/12/18 03:30:15;;;;;;;39.60;18.23;;;-6.80;87.20;;;;;;929912;151;27458;-77
2022/12/18 03:32:45;;;;;;;34.50;18.33;;;-6.80;87.20;;;;;;922363;152;27333;-78
2022/12/18 03:35:11;;;;;;;37.47;20.10;;;-6.80;87.20;;;;;;923683;152;27274;-77
2022/12/18 03:37:38;;;;;;;36.60;18.87;;;-6.80;87.20;;;;;;922699;152;27387;-77
2022/12/18 03:40:05;;;;;;;39.97;19.50;;;-6.80;87.10;;;;;;923322;152;27422;-78
2022/12/18 03:42:47;;;;;;;37.27;18.03;;;-6.80;87.10;;;;;;924195;152;27384;-78
2022/12/18 03:45:22;;;;;;;37.17;17.77;;;-6.90;87.00;;;;;;923880;152;27889;-77
2022/12/18 03:47:51;;;;;;;35.87;19.17;;;-6.90;86.90;;;;;;923997;152;27373;-78
2022/12/18 03:50:30;;;;;;;32.63;18.03;;;-6.90;86.80;;;;;;921880;152;27806;-77
2022/12/18 03:52:59;;;;;;;37.70;18.67;;;-6.90;86.80;;;;;;926211;151;27347;-79
2022/12/18 03:55:26;;;;;;;32.27;18.17;;;-7.00;86.60;;;;;;924063;152;27473;-78
2022/12/18 03:57:53;;;;;;;35.87;19.27;;;-7.00;86.60;;;;;;923101;151;27380;-77
2022/12/18 04:00:20;;;;;;;36.63;17.23;;;-7.10;86.60;;;;;;930505;150;27881;-81
2022/12/18 04:02:49;;;;;;;32.90;17.93;;;-7.10;86.50;;;;;;912479;153;27375;-81
2022/12/18 04:05:15;;;;;;;41.57;19.43;;;-7.10;86.50;;;;;;930575;150;27391;-80
2022/12/18 04:07:42;;;;;;;37.87;18.87;;;-7.10;86.50;;;;;;929910;150;27915;-81
2022/12/18 04:10:08;;;;;;;35.97;17.87;;;-7.20;86.50;;;;;;915857;151;27858;-81
2022/12/18 04:12:35;;;;;;;36.20;18.27;;;-7.20;86.60;;;;;;930578;148;27402;-79
2022/12/18 04:15:01;;;;;;;36.80;17.83;;;-7.20;86.80;;;;;;934018;146;27678;-81
2022/12/18 04:17:28;;;;;;;31.20;17.97;;;-7.20;86.90;;;;;;936506;150;27281;-80
2022/12/18 04:19:55;;;;;;;37.83;19.30;;;-7.20;86.90;;;;;;933423;149;27366;-82
2022/12/18 04:22:21;;;;;;;33.73;17.70;;;-7.20;86.80;;;;;;931188;151;27333;-80
2022/12/18 04:24:48;;;;;;;41.00;19.03;;;-7.20;86.70;;;;;;929034;150;27335;-81
2022/12/18 04:27:14;;;;;;;37.67;17.87;;;-7.20;86.70;;;;;;927514;151;27332;-81
2022/12/18 04:29:41;;;;;;;33.30;17.50;;;-7.20;86.50;;;;;;927558;151;27282;-81
2022/12/18 04:32:07;;;;;;;38.67;17.77;;;-7.30;86.40;;;;;;926238;151;27481;-79
2022/12/18 04:34:34;;;;;;;34.90;17.20;;;-7.20;86.40;;;;;;926231;151;27476;-82
2022/12/18 04:37:01;;;;;;;35.17;17.97;;;-7.30;86.20;;;;;;927069;151;27368;-81
2022/12/18 04:39:27;;;;;;;33.77;16.67;;;-7.30;86.20;;;;;;926415;151;27315;-80
2022/12/18 04:41:54;;;;;;;35.80;17.90;;;-7.30;86.10;;;;;;927325;151;27433;-81
2022/12/18 04:44:20;;;;;;;29.70;17.13;;;-7.40;86.00;;;;;;927951;151;27412;-81
2022/12/18 04:46:47;;;;;;;37.33;17.40;;;-7.40;85.90;;;;;;927102;151;27404;-81
2022/12/18 04:49:14;;;;;;;33.67;16.77;;;-7.40;85.90;;;;;;926466;151;27390;-82
2022/12/18 04:51:40;;;;;;;31.73;17.70;;;-7.40;85.90;;;;;;912985;153;27378;-81
2022/12/18 04:54:07;;;;;;;36.10;16.73;;;-7.50;85.70;;;;;;930101;150;27393;-81
2022/12/18 04:56:33;;;;;;;36.17;17.67;;;-7.50;85.80;;;;;;935496;150;27396;-80
2022/12/18 04:59:00;;;;;;;31.47;17.27;;;-7.50;85.90;;;;;;930065;151;27369;-79
2022/12/18 05:01:27;;;;;;;34.37;17.70;;;-7.50;86.00;;;;;;924858;152;27387;-81
2022/12/18 05:03:56;;;;;;;31.60;16.80;;;-7.50;86.20;;;;;;924615;152;27360;-81
2022/12/18 05:06:20;;;;;;;27.60;16.00;;;-7.50;86.40;;;;;;922899;152;27422;-82
2022/12/18 05:08:46;;;;;;;32.30;15.70;;;-7.50;86.40;;;;;;924589;152;27775;-81
2022/12/18 05:11:15;;;;;;;26.63;15.60;;;-7.50;86.50;;;;;;924029;152;27412;-79
2022/12/18 05:13:40;;;;;;;26.43;15.40;;;-7.50;86.60;;;;;;925212;152;27400;-81
2022/12/18 05:16:06;;;;;;;27.80;14.67;;;-7.50;86.70;;;;;;925803;152;28376;-82
2022/12/18 05:18:33;;;;;;;28.83;16.77;;;-7.50;86.70;;;;;;925110;152;27290;-81
2022/12/18 05:20:59;;;;;;;27.97;16.20;;;-7.50;86.70;;;;;;925691;152;27788;-81
2022/12/18 05:23:26;;;;;;;31.67;16.37;;;-7.50;86.70;;;;;;926700;152;27436;-81
2022/12/18 05:25:53;;;;;;;29.60;15.93;;;-7.60;86.70;;;;;;912986;153;27379;-79
2022/12/18 05:28:19;;;;;;;31.33;15.90;;;-7.60;86.70;;;;;;911490;153;27495;-81
2022/12/18 05:30:51;;;;;;;34.67;18.10;;;-7.60;86.70;;;;;;930801;151;27298;-82
2022/12/18 05:33:18;;;;;;;33.93;17.67;;;-7.60;86.70;;;;;;932526;151;27423;-81
2022/12/18 05:35:45;;;;;;;31.23;16.73;;;-7.60;86.60;;;;;;930545;150;27252;-80
2022/12/18 05:38:11;;;;;;;36.07;19.20;;;-7.50;86.50;;;;;;930203;150;27367;-80
2022/12/18 05:40:38;;;;;;;31.43;17.40;;;-7.60;86.40;;;;;;930819;150;27367;-81
2022/12/18 05:43:05;;;;;;;32.03;16.50;;;-7.60;86.20;;;;;;909305;154;27404;-81
2022/12/18 05:45:32;;;;;;;31.80;16.43;;;-7.60;86.10;;;;;;929848;150;27362;-80
2022/12/18 05:47:59;;;;;;;30.70;17.43;;;-7.60;86.00;;;;;;913233;153;27807;-81
2022/12/18 05:50:25;;;;;;;26.30;15.17;;;-7.70;85.90;;;;;;928576;150;27323;-81
2022/12/18 05:52:52;;;;;;;24.40;14.43;;;-7.70;85.80;;;;;;935550;150;27391;-81
2022/12/18 05:55:18;;;;;;;31.70;17.03;;;-7.70;85.90;;;;;;934379;150;27451;-81
2022/12/18 05:57:45;;;;;;;32.30;16.20;;;-7.70;85.80;;;;;;929682;151;27407;-81
2022/12/18 06:00:12;;;;;;;28.40;15.73;;;-7.70;85.80;;;;;;929019;151;27299;-81
2022/12/18 06:02:38;;;;;;;33.70;16.37;;;-7.80;85.70;;;;;;928804;151;27311;-81
2022/12/18 06:05:05;;;;;;;29.23;15.43;;;-7.80;85.80;;;;;;929311;151;27409;-81
2022/12/18 06:07:31;;;;;;;25.03;15.03;;;-7.80;85.90;;;;;;929161;151;27852;-80
2022/12/18 06:09:58;;;;;;;30.17;17.53;;;-7.80;85.20;;;;;;929597;151;27544;-81
2022/12/18 06:12:25;;;;;;;31.67;16.83;;;-7.80;86.00;;;;;;928305;151;29128;-81
2022/12/18 06:14:51;;;;;;;28.03;16.30;;;-7.80;86.20;;;;;;929331;151;27420;-81
2022/12/18 06:17:18;;;;;;;26.87;15.73;;;-7.80;86.30;;;;;;929691;150;27388;-81
2022/12/18 06:19:44;;;;;;;29.87;16.20;;;-7.80;86.40;;;;;;930155;151;27413;-81
2022/12/18 06:22:11;;;;;;;28.13;15.60;;;-7.80;86.50;;;;;;930238;151;27457;-81
2022/12/18 06:24:38;;;;;;;24.00;15.43;;;-7.80;86.50;;;;;;929075;151;27386;-82
2022/12/18 06:27:04;;;;;;;29.37;16.37;;;-7.80;86.50;;;;;;929137;151;27401;-81
2022/12/18 06:29:31;;;;;;;29.47;17.20;;;-7.80;86.50;;;;;;928292;151;27348;-82
2022/12/18 06:31:57;;;;;;;29.17;16.33;;;-7.80;86.30;;;;;;931102;151;27319;-80
2022/12/18 06:34:24;;;;;;;29.40;15.70;;;-7.80;86.10;;;;;;929474;151;27393;-79
2022/12/18 06:36:50;;;;;;;26.60;15.33;;;-7.80;85.90;;;;;;928546;151;27387;-81
2022/12/18 06:39:17;;;;;;;31.67;16.13;;;-7.80;85.80;;;;;;930315;151;27378;-81
2022/12/18 06:41:44;;;;;;;28.63;17.17;;;-7.90;85.70;;;;;;930001;151;27456;-82
2022/12/18 06:44:10;;;;;;;29.00;15.00;;;-7.90;85.70;;;;;;928086;151;27339;-81
2022/12/18 06:46:37;;;;;;;31.37;16.30;;;-7.90;85.80;;;;;;928391;151;27356;-80
2022/12/18 06:49:03;;;;;;;29.07;15.00;;;-7.90;85.80;;;;;;929258;151;27383;-81
2022/12/18 06:51:30;;;;;;;28.13;15.63;;;-7.90;85.90;;;;;;929501;151;27391;-81
2022/12/18 06:53:57;;;;;;;25.83;15.13;;;-7.90;85.80;;;;;;929095;151;27288;-81
2022/12/18 06:56:23;;;;;;;32.13;17.20;;;-7.90;85.80;;;;;;929185;151;27265;-82
2022/12/18 06:58:51;;;;;;;32.13;19.67;;;-7.90;85.70;;;;;;929741;151;27353;-81
2022/12/18 07:01:17;;;;;;;32.93;20.47;;;-8.00;85.60;;;;;;929516;150;27346;-80
2022/12/18 07:03:44;;;;;;;33.20;19.70;;;-8.00;85.50;;;;;;928313;151;27987;-81
2022/12/18 07:06:14;;;;;;;24.67;14.60;;;-8.00;85.60;;;;;;929385;151;27468;-81
2022/12/18 07:08:40;;;;;;;28.40;14.87;;;-8.00;85.50;;;;;;929347;151;27499;-81
2022/12/18 07:11:07;;;;;;;24.40;14.23;;;-8.00;85.40;;;;;;929550;151;27424;-81
2022/12/18 07:13:33;;;;;;;23.73;14.07;;;-8.00;85.40;;;;;;923599;152;27316;-81
2022/12/18 07:16:06;;;;;;;29.57;15.53;;;-8.00;85.40;;;;;;929052;151;27421;-81
2022/12/18 07:18:33;;;;;;;30.73;15.33;;;-8.00;85.40;;;;;;913474;154;27406;-78
2022/12/18 07:20:59;;;;;;;28.10;14.37;;;-8.10;85.30;;;;;;913367;154;27875;-80
2022/12/18 07:23:26;;;;;;;30.47;14.93;;;-8.10;85.30;;;;;;915523;154;27414;-81
2022/12/18 07:25:52;;;;;;;26.27;13.77;;;-8.10;85.40;;;;;;928699;151;27296;-81
2022/12/18 07:28:19;;;;;;;27.70;16.10;;;-8.10;85.50;;;;;;928804;151;27355;-81
2022/12/18 07:30:45;;;;;;;30.40;14.83;;;-8.10;85.60;;;;;;923273;152;27318;-79
2022/12/18 07:33:12;;;;;;;31.50;16.83;;;-8.00;85.80;;;;;;928705;151;27379;-81
2022/12/18 07:35:39;;;;;;;28.20;15.30;;;-8.00;86.00;;;;;;931318;151;27332;-81
2022/12/18 07:38:05;;;;;;;31.03;14.77;;;-8.00;86.20;;;;;;914768;154;27476;-81
2022/12/18 07:40:32;;;;;;;26.30;14.67;;;-7.90;86.40;;;;;;914243;154;27314;-81
2022/12/18 07:42:58;;;;;;;26.67;15.67;;;-7.90;86.50;;;;;;912876;154;27336;-81
2022/12/18 07:45:25;;;;;;;36.40;20.73;;;-7.80;86.70;;;;;;930199;151;27373;-81
2022/12/18 07:47:52;;;;;;;25.60;15.27;;;-7.80;86.90;;;;;;931044;151;27374;-81
2022/12/18 07:50:18;;;;;;;26.30;15.20;;;-7.70;87.10;;;;;;930822;151;27334;-81
2022/12/18 07:52:45;;;;;;;31.30;16.10;;;-7.60;87.50;;;;;;929277;151;27361;-80
2022/12/18 07:55:11;;;;;;;27.77;14.70;;;-7.60;87.50;;;;;;928916;151;27406;-81
2022/12/18 07:57:38;;;;;;;32.60;17.40;;;-7.50;87.80;;;;;;914244;154;27317;-80
2022/12/18 08:00:05;;;;;;;32.27;18.23;;;-7.30;88.10;;;;;;914276;154;27471;-81
2022/12/18 08:02:31;;;;;;;25.60;15.80;;;-7.20;88.90;;;;;;929462;151;27455;-81
2022/12/18 08:04:58;;;;;;;29.77;16.30;;;-6.90;90.30;;;;;;928750;151;27307;-81
2022/12/18 08:07:24;;;;;;;27.97;16.30;;;-6.70;91.00;;;;;;928020;151;27270;-81
2022/12/18 08:09:51;;;;;;;28.60;16.13;;;-6.40;91.50;;;;;;931283;151;27447;-80
2022/12/18 08:12:18;;;;;;;25.80;15.60;;;-6.10;91.30;;;;;;926415;150;27378;-79
2022/12/18 08:14:44;;;;;;;25.73;14.37;;;-5.90;90.70;;;;;;934304;150;27346;-81
2022/12/18 08:17:11;;;;;;;26.57;15.43;;;-5.70;89.70;;;;;;934330;150;27396;-81
2022/12/18 08:19:37;;;;;;;26.47;15.53;;;-5.60;88.20;;;;;;934411;150;27268;-81
2022/12/18 08:22:04;;;;;;;25.63;14.80;;;-5.60;87.00;;;;;;935216;150;27430;-81
2022/12/18 08:24:31;;;;;;;29.20;14.93;;;-5.60;86.10;;;;;;934186;150;27319;-78
2022/12/18 08:26:57;;;;;;;28.83;15.93;;;-5.60;86.20;;;;;;934187;150;27377;-82
2022/12/18 08:29:24;;;;;;;33.07;19.93;;;-5.60;85.10;;;;;;934923;150;27286;-81
2022/12/18 08:31:50;;;;;;;30.20;16.80;;;-5.60;84.70;;;;;;936400;150;27417;-81
2022/12/18 08:34:17;;;;;;;35.30;18.47;;;-5.60;84.60;;;;;;936311;147;27434;-82
2022/12/18 08:36:44;;;;;;;32.27;17.67;;;-5.60;84.40;;;;;;936983;150;27379;-81
2022/12/18 08:39:10;;;;;;;24.30;14.83;;;-5.60;84.70;;;;;;937685;150;27416;-81
2022/12/18 08:41:37;;;;;;;30.83;17.60;;;-5.50;85.70;;;;;;937279;150;27364;-81
2022/12/18 08:46:48;;;;;;;25.97;15.13;;;-5.30;87.80;;;;;;936184;150;27488;-80
2022/12/18 08:49:15;;;;;;;30.60;16.70;;;-5.20;87.80;;;;;;936868;150;27377;-80
2022/12/18 08:51:41;;;;;;;26.80;17.13;;;-5.10;87.50;;;;;;936914;150;27385;-80
2022/12/18 08:54:08;;;;;;;25.20;15.80;;;-4.90;87.50;;;;;;936542;150;27372;-82
2022/12/18 08:56:34;;;;;;;26.60;15.80;;;-4.80;88.10;;;;;;935726;150;27346;-81
2022/12/18 08:59:01;;;;;;;23.87;14.60;;;-4.60;88.40;;;;;;936673;150;27322;-81
2022/12/18 09:01:28;;;;;;;26.33;14.67;;;-4.50;88.00;;;;;;936333;150;27327;-81
2022/12/18 09:03:54;;;;;;;28.43;16.03;;;-4.40;87.50;;;;;;936945;150;27425;-81
2022/12/18 09:06:21;;;;;;;25.60;16.30;;;-4.30;86.80;;;;;;936018;150;27291;-78
2022/12/18 09:08:47;;;;;;;27.47;15.50;;;-4.30;86.40;;;;;;936950;150;27419;-81
2022/12/18 09:11:14;;;;;;;28.63;16.63;;;-4.20;86.80;;;;;;937184;150;27355;-84
2022/12/18 09:13:41;;;;;;;24.50;15.37;;;-4.20;86.00;;;;;;931943;148;27419;-84
2022/12/18 09:16:07;;;;;;;26.47;16.80;;;-4.20;85.90;;;;;;926962;151;27243;-84
2022/12/18 09:18:34;;;;;;;28.87;17.57;;;-4.20;86.00;;;;;;925360;151;27444;-81
2022/12/18 09:21:00;;;;;;;29.60;17.63;;;-4.10;86.20;;;;;;925669;151;27354;-84
2022/12/18 09:23:27;;;;;;;34.10;20.40;;;-4.10;86.50;;;;;;925977;151;27350;-83
2022/12/18 09:25:53;;;;;;;33.03;19.17;;;-4.00;86.70;;;;;;924864;151;27509;-84
2022/12/18 09:28:20;;;;;;;29.57;18.70;;;-4.00;86.80;;;;;;924250;151;27768;-83
2022/12/18 09:30:47;;;;;;;28.23;16.63;;;-3.90;87.10;;;;;;924996;151;27323;-81
2022/12/18 09:33:13;;;;;;;31.17;19.20;;;-3.80;87.20;;;;;;925356;151;27467;-84
2022/12/18 09:35:40;;;;;;;31.63;18.20;;;-3.70;87.70;;;;;;925325;151;27347;-82
2022/12/18 09:38:07;;;;;;;33.13;19.13;;;-3.60;88.10;;;;;;924425;151;27377;-83
2022/12/18 09:40:42;;;;;;;28.03;17.27;;;-3.50;88.50;;;;;;925092;151;27284;-84
2022/12/18 09:43:09;;;;;;;29.63;16.30;;;-3.50;88.70;;;;;;924823;151;27300;-81
2022/12/18 09:45:41;;;;;;;28.93;17.33;;;-3.30;89.90;;;;;;925307;151;27500;-82
2022/12/18 09:48:10;;;;;;;29.83;18.43;;;-3.20;89.50;;;;;;924827;151;27341;-82
2022/12/18 09:50:37;;;;;;;29.47;17.13;;;-3.10;89.60;;;;;;924766;151;27381;-83
2022/12/18 09:53:04;;;;;;;31.77;18.13;;;-3.00;89.70;;;;;;925460;151;27276;-82
2022/12/18 09:55:36;;;;;;;27.60;18.07;;;-2.90;89.70;;;;;;926194;151;27308;-82
2022/12/18 09:58:12;;;;;;;27.67;16.63;;;-2.80;89.80;;;;;;925464;151;27363;-82
2022/12/18 10:00:38;;;;;;;28.93;18.27;;;-2.70;90.00;;;;;;925482;151;27859;-83
2022/12/18 10:03:11;;;;;;;31.03;17.63;;;-2.60;90.00;;;;;;925562;151;27421;-82
2022/12/18 10:05:56;;;;;;;29.00;17.17;;;-2.50;90.40;;;;;;925009;151;27387;-82
2022/12/18 10:08:31;;;;;;;27.07;17.53;;;-2.40;90.10;;;;;;925844;151;27350;-82
2022/12/18 10:11:00;;;;;;;28.20;16.77;;;-2.30;90.20;;;;;;925593;151;27355;-82
2022/12/18 10:13:39;;;;;;;32.47;18.03;;;-2.20;90.20;;;;;;926132;151;27293;-82
2022/12/18 10:16:20;;;;;;;31.57;19.03;;;-2.10;90.10;;;;;;932829;151;27301;-82
2022/12/18 10:19:02;;;;;;;28.50;16.43;;;-2.00;90.20;;;;;;935278;151;27330;-81
2022/12/18 10:21:29;;;;;;;35.50;18.67;;;-1.90;90.20;;;;;;934909;151;27332;-80
2022/12/18 10:24:04;;;;;;;29.20;17.07;;;-1.80;90.20;;;;;;934884;151;27446;-82
2022/12/18 10:26:30;;;;;;;28.33;18.37;;;-1.70;90.20;;;;;;934795;151;27468;-82
2022/12/18 10:28:57;;;;;;;27.67;17.50;;;-1.60;90.10;;;;;;939204;151;27264;-80
2022/12/18 10:31:24;;;;;;;26.07;16.47;;;-1.50;90.10;;;;;;936637;149;27342;-80
2022/12/18 10:33:50;;;;;;;31.00;17.57;;;-1.40;90.10;;;;;;937550;149;27465;-79
2022/12/18 10:36:17;;;;;;;28.63;17.20;;;-1.40;90.00;;;;;;935865;148;27372;-80
2022/12/18 10:38:43;;;;;;;23.77;15.37;;;-1.30;90.00;;;;;;934566;151;27296;-83
2022/12/18 10:41:21;;;;;;;30.20;16.80;;;-1.20;90.00;;;;;;934251;151;27698;-82
2022/12/18 10:43:46;;;;;;;29.03;16.63;;;-1.10;90.00;;;;;;934698;151;27292;-82
2022/12/18 10:46:14;;;;;;;27.70;15.97;;;-1.00;90.00;;;;;;932985;151;27377;-81
2022/12/18 10:48:42;;;;;;;30.23;16.53;;;-0.90;89.80;;;;;;932972;151;27479;-83
2022/12/18 10:51:08;;;;;;;27.03;16.23;;;-0.90;89.60;;;;;;937441;151;27341;-81
2022/12/18 10:53:35;;;;;;;25.13;16.37;;;-0.80;89.40;;;;;;935778;151;27312;-82
2022/12/18 10:56:01;;;;;;;33.13;17.83;;;-0.70;89.30;;;;;;935164;151;27237;-81
2022/12/18 10:58:34;;;;;;;27.93;15.77;;;-0.70;89.10;;;;;;936133;151;27362;-81
2022/12/18 11:01:06;;;;;;;24.07;15.47;;;-0.60;88.90;;;;;;936094;151;27463;-81
2022/12/18 11:03:35;;;;;;;27.27;16.03;;;-0.60;88.60;;;;;;934071;151;27434;-81
2022/12/18 11:06:02;;;;;;;28.87;15.23;;;-0.60;88.50;;;;;;935911;151;27293;-82
2022/12/18 11:08:29;;;;;;;24.33;15.20;;;-0.50;88.80;;;;;;927540;151;27441;-80
2022/12/18 11:10:55;;;;;;;28.93;16.67;;;-0.50;88.80;;;;;;927435;151;27530;-80
2022/12/18 11:13:25;;;;;;;23.60;15.37;;;-0.40;88.90;;;;;;937119;151;27377;-81
2022/12/18 11:15:51;;;;;;;23.43;16.17;;;-0.40;88.90;;;;;;909049;151;27429;-81
2022/12/18 11:18:33;;;;;;;24.27;15.67;;;-0.30;89.20;;;;;;927318;151;27393;-81
2022/12/18 11:21:02;;;;;;;24.53;16.10;;;-0.20;89.20;;;;;;927014;151;27430;-78
2022/12/18 11:23:28;;;;;;;24.03;15.60;;;-0.10;89.40;;;;;;925707;151;27364;-82
2022/12/18 11:26:03;;;;;;;27.73;15.70;;;0.00;89.70;;;;;;926920;151;27325;-82
2022/12/18 11:28:52;;;;;;;20.93;14.20;;;0.10;90.10;;;;;;926867;151;28054;-81
2022/12/18 11:31:18;;;;;;;23.87;15.93;;;0.20;90.40;;;;;;924437;151;27295;-81
2022/12/18 11:34:06;;;;;;;23.20;14.70;;;0.40;90.40;;;;;;927707;151;27809;-78
2022/12/18 11:36:35;;;;;;;21.80;13.87;;;0.60;90.50;;;;;;926375;151;27391;-82
2022/12/18 11:39:01;;;;;;;23.17;15.00;;;0.70;90.30;;;;;;926662;151;27352;-81
2022/12/18 11:44:34;;;;;;;21.77;15.03;;;1.00;89.60;;;;;;927259;151;27383;-83
2022/12/18 11:47:01;;;;;;;21.80;15.07;;;1.10;88.90;;;;;;926037;151;27427;-80
2022/12/18 11:49:27;;;;;;;22.97;14.47;;;1.10;88.20;;;;;;926317;151;27371;-83
2022/12/18 11:51:54;;;;;;;23.13;14.77;;;1.20;87.70;;;;;;926458;151;28476;-83
2022/12/18 11:54:20;;;;;;;22.37;14.77;;;1.20;87.40;;;;;;926673;151;27437;-83
2022/12/18 11:56:47;;;;;;;24.80;15.80;;;1.20;87.10;;;;;;927300;151;27366;-83
2022/12/18 11:59:16;;;;;;;24.27;15.07;;;1.30;87.00;;;;;;922690;151;27344;-82
2022/12/18 12:01:46;;;;;;;24.13;15.43;;;1.30;86.80;;;;;;926485;151;27405;-83
2022/12/18 12:04:30;;;;;;;22.67;14.47;;;1.30;86.50;;;;;;926128;151;27324;-83
2022/12/18 12:07:18;;;;;;;24.70;13.70;;;1.30;86.10;;;;;;925774;151;27332;-83
2022/12/18 12:09:48;;;;;;;26.53;15.10;;;1.30;85.70;;;;;;927348;151;27383;-81
2022/12/18 12:12:45;;;;;;;23.63;14.93;;;1.30;85.70;;;;;;906163;151;27898;-81
2022/12/18 12:15:10;;;;;;;23.43;14.43;;;1.20;85.60;;;;;;920190;151;27512;-84
2022/12/18 12:17:43;;;;;;;21.53;14.90;;;1.20;85.50;;;;;;896784;151;27314;-83
2022/12/18 12:20:43;;;;;;;25.27;15.50;;;1.20;85.40;;;;;;921409;152;27300;-83
2022/12/18 12:23:35;;;;;;;25.77;14.63;;;1.20;85.40;;;;;;927922;151;27294;-83
2022/12/18 12:26:04;;;;;;;22.10;14.63;;;1.20;85.50;;;;;;927790;151;27312;-82
2022/12/18 12:28:37;;;;;;;23.50;14.80;;;1.10;85.40;;;;;;912779;154;27335;-82
2022/12/18 12:31:06;;;;;;;21.70;14.07;;;1.10;85.50;;;;;;927486;151;27761;-79
2022/12/18 12:33:36;;;;;;;22.63;14.37;;;1.10;85.60;;;;;;928059;151;27421;-81
2022/12/18 12:36:05;;;;;;;22.93;14.43;;;1.10;85.70;;;;;;894932;154;27328;-82
2022/12/18 12:38:34;;;;;;;22.87;14.77;;;1.10;85.70;;;;;;913178;154;27349;-82
2022/12/18 12:43:12;;;;;;;25.30;15.87;;;1.20;85.70;;;;;;917870;151;27285;-79
2022/12/18 12:43:33;;;;;;;22.33;14.07;;;1.20;85.70;;;;;;919428;152;27392;-82
2022/12/18 12:46:06;;;;;;;21.17;14.27;;;1.20;86.00;;;;;;923360;152;27423;-82